Time;durP1;ratioP1;P1;durP2;ratioP2;P2;SDS_P1;SDS_P2;PMS_P1;PMS_P2;Temp;Humidity;BMP_temperature;BMP_pressure;BME280_temperature;BME280_humidity;BME280_pressure;Samples;Min_cycle;Max_cycle;Signal;HPM_P1;HPM_P2
2023/09/05 00:00:44;;;;;;;14.68;12.10;;;14.40;99.90;;;;;;5033259;28;20120;-63
2023/09/05 00:03:10;;;;;;;12.57;10.98;;;14.40;99.90;;;;;;5032376;28;20045;-63
2023/09/05 00:05:36;;;;;;;14.77;11.60;;;14.40;99.90;;;;;;5032021;28;20048;-63
2023/09/05 00:08:02;;;;;;;16.10;12.35;;;14.40;99.90;;;;;;5031570;28;20398;-63
2023/09/05 00:10:28;;;;;;;15.65;12.52;;;14.30;99.90;;;;;;5031973;28;20390;-63
2023/09/05 00:12:53;;;;;;;16.35;13.15;;;14.30;99.90;;;;;;5032133;28;20048;-63
2023/09/05 00:15:19;;;;;;;17.33;13.38;;;14.20;99.90;;;;;;5030737;28;20029;-63
2023/09/05 00:17:45;;;;;;;13.75;11.95;;;14.20;99.90;;;;;;5014953;28;20394;-63
2023/09/05 00:20:15;;;;;;;14.18;11.85;;;14.20;99.90;;;;;;5033222;28;20041;-63
2023/09/05 00:22:41;;;;;;;13.70;11.60;;;14.20;99.90;;;;;;5032279;28;20085;-63
2023/09/05 00:25:07;;;;;;;13.93;11.65;;;14.20;99.90;;;;;;5031749;28;20091;-63
2023/09/05 00:27:35;;;;;;;16.23;12.20;;;14.20;99.90;;;;;;5031612;28;20049;-63
2023/09/05 00:30:03;;;;;;;14.38;11.70;;;14.20;99.90;;;;;;5014211;28;20040;-63
2023/09/05 00:32:28;;;;;;;13.20;11.27;;;14.10;99.90;;;;;;5031256;28;20042;-63
2023/09/05 00:34:54;;;;;;;15.98;12.20;;;14.10;99.90;;;;;;5031736;28;20491;-63
2023/09/05 00:37:23;;;;;;;15.20;12.70;;;14.10;99.90;;;;;;5030926;28;20072;-63
2023/09/05 00:39:49;;;;;;;13.98;11.43;;;14.10;99.90;;;;;;5031643;28;20120;-63
2023/09/05 00:42:15;;;;;;;14.70;11.25;;;14.00;99.90;;;;;;5030447;28;20108;-63
2023/09/05 00:44:42;;;;;;;13.30;11.27;;;14.00;99.90;;;;;;5030640;28;20049;-63
2023/09/05 00:47:13;;;;;;;14.55;11.65;;;14.00;99.90;;;;;;5021757;28;20186;-63
2023/09/05 00:49:49;;;;;;;13.60;11.27;;;14.00;99.90;;;;;;5049052;28;20124;-63
2023/09/05 00:52:18;;;;;;;13.48;10.93;;;14.10;99.90;;;;;;5051625;28;20429;-63
2023/09/05 00:54:44;;;;;;;14.25;11.15;;;14.10;99.90;;;;;;5052531;28;20103;-63
2023/09/05 00:57:14;;;;;;;16.92;11.30;;;14.20;99.90;;;;;;5050129;28;20040;-63
2023/09/05 00:59:41;;;;;;;14.55;12.23;;;14.20;99.90;;;;;;5052062;28;20049;-63
2023/09/05 01:02:07;;;;;;;15.95;11.30;;;14.20;99.90;;;;;;5052255;28;20045;-63
2023/09/05 01:04:33;;;;;;;17.05;12.00;;;14.30;99.90;;;;;;4998594;28;20099;-63
2023/09/05 01:07:08;;;;;;;15.50;11.27;;;14.30;99.90;;;;;;5011501;28;20053;-63
2023/09/05 01:10:05;;;;;;;18.13;12.77;;;14.40;99.90;;;;;;5024769;28;20050;-63
2023/09/05 01:12:31;;;;;;;12.98;10.30;;;14.40;99.90;;;;;;5030188;28;20041;-63
2023/09/05 01:14:57;;;;;;;13.65;10.63;;;14.40;99.90;;;;;;5031277;28;20553;-63
2023/09/05 01:17:28;;;;;;;15.38;11.60;;;14.40;99.90;;;;;;5030701;28;20054;-63
2023/09/05 01:19:56;;;;;;;13.43;10.93;;;14.50;99.90;;;;;;5030403;28;20045;-63
2023/09/05 01:22:48;;;;;;;13.60;11.23;;;14.50;99.90;;;;;;5003048;28;20037;-63
2023/09/05 01:25:14;;;;;;;14.07;11.40;;;14.50;99.90;;;;;;5031660;28;20087;-63
2023/09/05 01:27:40;;;;;;;15.77;12.20;;;14.50;99.90;;;;;;5031530;28;20042;-63
2023/09/05 01:30:09;;;;;;;14.90;12.32;;;14.60;99.90;;;;;;5014395;28;20146;-63
2023/09/05 01:32:34;;;;;;;14.38;11.32;;;14.60;99.90;;;;;;5027596;28;20069;-63
2023/09/05 01:35:00;;;;;;;13.52;10.88;;;14.60;99.90;;;;;;5011180;28;20471;-63
2023/09/05 01:37:26;;;;;;;14.75;11.18;;;14.60;99.90;;;;;;5027320;28;20137;-63
2023/09/05 01:39:51;;;;;;;14.82;11.52;;;14.50;99.90;;;;;;5025215;28;20076;-63
2023/09/05 01:42:17;;;;;;;15.18;11.23;;;14.60;99.90;;;;;;5030717;28;20478;-63
2023/09/05 01:44:43;;;;;;;16.30;12.38;;;14.50;99.90;;;;;;5030682;28;20490;-63
2023/09/05 01:47:08;;;;;;;16.60;12.32;;;14.60;99.90;;;;;;5036543;28;20467;-63
2023/09/05 01:49:34;;;;;;;16.10;11.68;;;14.50;99.90;;;;;;5037241;28;20060;-68
2023/09/05 01:52:00;;;;;;;15.45;12.55;;;14.50;99.90;;;;;;5021957;28;20037;-68
2023/09/05 01:54:26;;;;;;;16.48;13.38;;;14.50;99.90;;;;;;5054736;28;20037;-68
2023/09/05 01:56:51;;;;;;;16.15;12.80;;;14.50;99.90;;;;;;5037906;28;20119;-68
2023/09/05 01:59:19;;;;;;;14.80;12.05;;;14.50;99.90;;;;;;5037263;28;20513;-68
2023/09/05 02:01:45;;;;;;;17.75;12.80;;;14.50;99.90;;;;;;5054664;28;20063;-68
2023/09/05 02:04:11;;;;;;;17.10;12.50;;;14.50;99.90;;;;;;5055434;28;20487;-68
2023/09/05 02:06:37;;;;;;;17.90;13.52;;;14.40;99.90;;;;;;5055543;28;20115;-67
2023/09/05 02:09:02;;;;;;;15.73;12.50;;;14.40;99.90;;;;;;5036812;28;20049;-68
2023/09/05 02:11:28;;;;;;;17.95;13.13;;;14.40;99.90;;;;;;5036926;28;20048;-67
2023/09/05 02:13:54;;;;;;;17.25;14.05;;;14.40;99.90;;;;;;5037879;28;20041;-68
2023/09/05 02:16:19;;;;;;;16.67;13.25;;;14.40;99.90;;;;;;5036378;28;20044;-68
2023/09/05 02:18:49;;;;;;;17.45;13.48;;;14.40;99.90;;;;;;5055147;28;20094;-68
2023/09/05 02:21:15;;;;;;;16.50;13.25;;;14.40;99.90;;;;;;5037067;28;20036;-67
2023/09/05 02:23:41;;;;;;;17.63;12.70;;;14.30;99.90;;;;;;5036437;28;20049;-68
2023/09/05 02:26:08;;;;;;;17.45;12.93;;;14.30;99.90;;;;;;5037247;28;20044;-68
2023/09/05 02:28:33;;;;;;;17.90;13.50;;;14.30;99.90;;;;;;5054258;28;20039;-68
2023/09/05 02:31:07;;;;;;;16.98;13.70;;;14.30;99.90;;;;;;5037078;28;20124;-68
2023/09/05 02:33:37;;;;;;;17.27;13.38;;;14.30;99.90;;;;;;5037427;28;20036;-68
2023/09/05 02:36:15;;;;;;;16.52;13.50;;;14.30;99.90;;;;;;5036489;28;20048;-68
2023/09/05 02:38:41;;;;;;;16.95;13.60;;;14.30;99.90;;;;;;5036707;28;20123;-68
2023/09/05 02:41:10;;;;;;;18.58;14.00;;;14.20;99.90;;;;;;5020506;28;20036;-68
2023/09/05 02:43:36;;;;;;;19.85;13.70;;;14.20;99.90;;;;;;5019289;28;20146;-68
2023/09/05 02:46:02;;;;;;;16.52;13.18;;;14.20;99.90;;;;;;5054971;28;20059;-68
2023/09/05 02:48:27;;;;;;;17.48;13.63;;;14.20;99.90;;;;;;5032682;28;20049;-68
2023/09/05 02:51:04;;;;;;;15.60;13.00;;;14.20;99.90;;;;;;5032833;28;20437;-68
2023/09/05 02:53:30;;;;;;;17.48;13.65;;;14.20;99.90;;;;;;5034037;28;20481;-68
2023/09/05 02:55:55;;;;;;;17.10;12.45;;;14.20;99.90;;;;;;5033770;28;20053;-68
2023/09/05 02:58:21;;;;;;;19.52;14.45;;;14.20;99.90;;;;;;5032143;28;20037;-68
2023/09/05 03:00:50;;;;;;;15.60;12.75;;;14.30;99.90;;;;;;5033426;28;20084;-68
2023/09/05 03:03:18;;;;;;;17.20;12.32;;;14.20;99.90;;;;;;5033471;28;20049;-68
2023/09/05 03:05:44;;;;;;;16.40;12.40;;;14.20;99.90;;;;;;5032315;28;20045;-68
2023/09/05 03:08:10;;;;;;;17.65;12.55;;;14.20;99.90;;;;;;5034496;28;20044;-68
2023/09/05 03:10:35;;;;;;;16.42;12.45;;;14.20;99.90;;;;;;5032200;28;20038;-68
2023/09/05 03:13:01;;;;;;;15.75;12.60;;;14.20;99.90;;;;;;5016087;28;20038;-68
2023/09/05 03:15:27;;;;;;;17.33;13.25;;;14.10;99.90;;;;;;5033004;28;20033;-68
2023/09/05 03:17:53;;;;;;;16.15;13.05;;;14.10;99.90;;;;;;5032663;28;20045;-68
2023/09/05 03:20:18;;;;;;;15.05;13.20;;;14.10;99.90;;;;;;5033937;28;20048;-68
2023/09/05 03:22:44;;;;;;;16.25;12.38;;;14.10;99.90;;;;;;5016225;28;20431;-68
2023/09/05 03:25:10;;;;;;;16.85;13.38;;;14.10;99.90;;;;;;5033068;28;20152;-68
2023/09/05 03:27:36;;;;;;;19.17;12.73;;;14.10;99.90;;;;;;5032800;28;20045;-68
2023/09/05 03:30:02;;;;;;;15.43;12.57;;;14.10;99.90;;;;;;5033568;28;20052;-68
2023/09/05 03:32:27;;;;;;;17.25;13.45;;;14.00;99.90;;;;;;5032927;28;20056;-68
2023/09/05 03:34:53;;;;;;;18.13;13.63;;;14.10;99.90;;;;;;5033217;28;20041;-68
2023/09/05 03:37:19;;;;;;;16.23;12.68;;;14.00;99.90;;;;;;5015837;28;20045;-68
2023/09/05 03:39:44;;;;;;;17.55;13.98;;;13.90;99.90;;;;;;5031473;28;20045;-68
2023/09/05 03:42:10;;;;;;;16.80;13.02;;;14.00;99.90;;;;;;5033743;28;20092;-68
2023/09/05 03:44:36;;;;;;;16.75;13.85;;;13.90;99.90;;;;;;5032538;28;20094;-68
2023/09/05 03:47:02;;;;;;;16.88;13.15;;;13.90;99.90;;;;;;5030572;28;20049;-68
2023/09/05 03:49:28;;;;;;;18.13;13.65;;;13.90;99.90;;;;;;5015571;28;20046;-68
2023/09/05 03:51:57;;;;;;;14.50;11.07;;;13.90;99.90;;;;;;5016295;28;20398;-68
2023/09/05 03:54:23;;;;;;;15.77;13.35;;;13.90;99.90;;;;;;5015031;28;20120;-68
2023/09/05 03:56:48;;;;;;;17.00;12.52;;;13.80;99.90;;;;;;5015704;28;20120;-68
2023/09/05 03:59:15;;;;;;;21.42;13.65;;;13.90;99.90;;;;;;5015492;28;20440;-68
2023/09/05 04:01:41;;;;;;;16.95;13.40;;;13.80;99.90;;;;;;5032339;28;20073;-68
2023/09/05 04:04:09;;;;;;;16.52;12.95;;;13.90;99.90;;;;;;5015521;28;20076;-68
2023/09/05 04:06:37;;;;;;;17.13;12.43;;;13.80;99.90;;;;;;5015445;28;20494;-68
2023/09/05 04:09:03;;;;;;;15.05;12.75;;;13.80;99.90;;;;;;5000291;28;20048;-68
2023/09/05 04:11:28;;;;;;;16.60;13.23;;;13.80;99.90;;;;;;5042604;28;20045;-68
2023/09/05 04:13:54;;;;;;;16.10;13.55;;;13.80;99.90;;;;;;5033606;28;20045;-68
2023/09/05 04:16:20;;;;;;;17.33;14.25;;;13.80;99.90;;;;;;5032365;28;20108;-68
2023/09/05 04:18:45;;;;;;;16.83;13.30;;;13.80;99.90;;;;;;5015076;28;20041;-68
2023/09/05 04:21:11;;;;;;;17.77;13.43;;;13.80;99.90;;;;;;5032121;28;20103;-68
2023/09/05 04:23:37;;;;;;;16.67;12.90;;;13.70;99.90;;;;;;5032751;28;20081;-68
2023/09/05 04:26:02;;;;;;;20.17;13.98;;;13.70;99.90;;;;;;5015510;28;20050;-68
2023/09/05 04:28:29;;;;;;;15.45;12.65;;;13.70;99.90;;;;;;5014059;28;20045;-68
2023/09/05 04:31:00;;;;;;;18.00;13.18;;;13.70;99.90;;;;;;4998604;28;20053;-68
2023/09/05 04:33:26;;;;;;;17.00;13.25;;;13.70;99.90;;;;;;5033684;28;20081;-68
2023/09/05 04:35:52;;;;;;;16.20;11.02;;;13.70;99.90;;;;;;5031784;28;20073;-68
2023/09/05 04:38:18;;;;;;;15.80;12.15;;;13.70;99.90;;;;;;5032786;28;20037;-68
2023/09/05 04:40:43;;;;;;;17.10;14.25;;;13.70;99.90;;;;;;4998391;28;20095;-68
2023/09/05 04:43:09;;;;;;;17.30;14.77;;;13.70;99.90;;;;;;5044449;28;20033;-68
2023/09/05 04:45:35;;;;;;;19.05;14.45;;;13.70;99.90;;;;;;5014779;28;20033;-68
2023/09/05 04:48:00;;;;;;;20.50;15.48;;;13.70;99.90;;;;;;5046828;28;20516;-68
2023/09/05 04:50:26;;;;;;;19.17;14.20;;;13.70;99.90;;;;;;5033078;28;20513;-68
2023/09/05 04:52:51;;;;;;;20.63;15.13;;;13.60;99.90;;;;;;5052505;28;20037;-68
2023/09/05 04:55:17;;;;;;;18.63;15.52;;;13.60;99.90;;;;;;5034555;28;20032;-68
2023/09/05 04:57:43;;;;;;;20.30;15.02;;;13.60;99.90;;;;;;5033709;28;20037;-68
2023/09/05 05:00:13;;;;;;;18.33;15.27;;;13.70;99.90;;;;;;5033975;28;20044;-68
2023/09/05 05:02:39;;;;;;;16.77;14.20;;;13.60;99.90;;;;;;5034338;28;20120;-68
2023/09/05 05:05:06;;;;;;;18.95;15.55;;;13.60;99.90;;;;;;5017277;28;20543;-68
2023/09/05 05:07:31;;;;;;;19.98;15.20;;;13.70;99.90;;;;;;5052055;28;20046;-68
2023/09/05 05:09:57;;;;;;;16.75;13.85;;;13.60;99.90;;;;;;5034190;28;20041;-68
2023/09/05 05:12:24;;;;;;;18.95;14.88;;;13.60;99.90;;;;;;5051366;28;20041;-68
2023/09/05 05:14:49;;;;;;;17.77;15.57;;;13.70;99.90;;;;;;5052100;28;20390;-68
2023/09/05 05:17:15;;;;;;;18.13;15.15;;;13.70;99.90;;;;;;5051864;28;20048;-68
2023/09/05 05:19:41;;;;;;;21.63;16.50;;;13.70;99.90;;;;;;5032514;28;20047;-68
2023/09/05 05:22:07;;;;;;;17.95;14.52;;;13.70;99.90;;;;;;5033663;28;20041;-68
2023/09/05 05:24:33;;;;;;;19.00;14.90;;;13.70;99.90;;;;;;5017073;28;20048;-68
2023/09/05 05:26:58;;;;;;;17.67;14.70;;;13.70;99.90;;;;;;5034633;28;20095;-68
2023/09/05 05:29:25;;;;;;;18.75;14.85;;;13.70;99.90;;;;;;5033624;28;20041;-68
2023/09/05 05:31:51;;;;;;;20.80;15.75;;;13.70;99.90;;;;;;5033025;28;20150;-68
2023/09/05 05:34:17;;;;;;;18.13;14.07;;;13.80;99.90;;;;;;5034146;28;20155;-68
2023/09/05 05:36:43;;;;;;;17.95;15.10;;;13.80;99.90;;;;;;5051765;28;20474;-68
2023/09/05 05:39:09;;;;;;;18.33;14.45;;;13.80;99.90;;;;;;5050903;28;20037;-68
2023/09/05 05:41:34;;;;;;;17.67;13.75;;;13.90;99.90;;;;;;5051575;28;20039;-68
2023/09/05 05:44:00;;;;;;;17.30;13.90;;;13.90;99.90;;;;;;5033846;28;20041;-68
2023/09/05 05:46:26;;;;;;;18.52;14.65;;;13.90;99.90;;;;;;5032755;28;20091;-68
2023/09/05 05:48:52;;;;;;;18.95;13.38;;;14.00;99.90;;;;;;5051387;28;20045;-68
2023/09/05 05:51:18;;;;;;;16.08;12.88;;;14.00;99.90;;;;;;5051555;28;20095;-68
2023/09/05 05:53:45;;;;;;;16.80;13.15;;;14.10;99.90;;;;;;5050434;28;20094;-68
2023/09/05 05:56:10;;;;;;;17.60;12.15;;;14.10;99.90;;;;;;5051655;28;20063;-68
2023/09/05 05:58:36;;;;;;;20.75;13.63;;;14.20;99.90;;;;;;5033310;28;20041;-68
2023/09/05 06:01:02;;;;;;;17.52;13.35;;;14.20;99.90;;;;;;5032954;28;20053;-68
2023/09/05 06:03:29;;;;;;;16.52;13.57;;;14.30;99.90;;;;;;5033225;28;20128;-68
2023/09/05 06:05:55;;;;;;;16.35;13.18;;;14.30;99.90;;;;;;5033907;28;20139;-68
2023/09/05 06:08:21;;;;;;;19.60;14.48;;;14.40;99.90;;;;;;5032961;28;20119;-68
2023/09/05 06:10:48;;;;;;;17.75;13.85;;;14.40;99.90;;;;;;5033406;28;20482;-68
2023/09/05 06:13:13;;;;;;;17.10;13.40;;;14.50;99.90;;;;;;5033790;28;20033;-68
2023/09/05 06:15:40;;;;;;;14.55;12.30;;;14.60;99.90;;;;;;5032922;28;20127;-68
2023/09/05 06:18:07;;;;;;;17.90;13.27;;;14.60;99.90;;;;;;5033569;28;20052;-68
2023/09/05 06:20:34;;;;;;;16.00;12.48;;;14.70;99.90;;;;;;5033002;28;20091;-68
2023/09/05 06:23:00;;;;;;;16.75;12.65;;;14.80;99.90;;;;;;5032949;28;20124;-68
2023/09/05 06:25:27;;;;;;;15.25;12.60;;;14.90;99.90;;;;;;5033304;28;20432;-68
2023/09/05 06:27:53;;;;;;;15.68;12.73;;;15.00;99.90;;;;;;5032628;28;20049;-68
2023/09/05 06:30:19;;;;;;;15.35;12.25;;;15.00;99.90;;;;;;5032821;28;20482;-68
2023/09/05 06:32:44;;;;;;;13.25;11.77;;;15.10;99.90;;;;;;5052937;28;20083;-67
2023/09/05 06:35:10;;;;;;;17.10;11.93;;;15.20;99.90;;;;;;5036443;28;20029;-68
2023/09/05 06:37:37;;;;;;;16.83;13.23;;;15.30;99.90;;;;;;5037289;28;20497;-67
2023/09/05 06:40:09;;;;;;;14.25;12.43;;;15.30;99.90;;;;;;5037110;28;20106;-68
2023/09/05 06:42:41;;;;;;;17.70;13.13;;;15.40;99.90;;;;;;5019732;28;20044;-63
2023/09/05 06:45:07;;;;;;;15.45;12.38;;;15.50;99.90;;;;;;5036984;28;20091;-64
2023/09/05 06:47:33;;;;;;;14.85;11.95;;;15.60;99.90;;;;;;5036147;28;20056;-63
2023/09/05 06:49:59;;;;;;;15.82;12.23;;;15.60;99.90;;;;;;5035740;28;20052;-63
2023/09/05 06:52:25;;;;;;;14.77;11.05;;;15.70;99.90;;;;;;5054788;28;20394;-63
2023/09/05 06:54:52;;;;;;;14.77;12.45;;;15.80;99.90;;;;;;5054596;28;20037;-63
2023/09/05 06:57:18;;;;;;;19.25;12.65;;;15.90;99.90;;;;;;5035537;28;20041;-63
2023/09/05 06:59:44;;;;;;;13.68;10.48;;;16.00;99.90;;;;;;5034991;28;20457;-63
2023/09/05 07:02:09;;;;;;;13.35;9.85;;;16.10;99.90;;;;;;5036553;28;20068;-63
2023/09/05 07:04:36;;;;;;;11.50;9.50;;;16.10;99.90;;;;;;5030763;28;20045;-63
2023/09/05 07:07:03;;;;;;;14.70;10.18;;;16.20;99.90;;;;;;5051538;28;20045;-62
2023/09/05 07:09:30;;;;;;;15.65;10.93;;;16.30;99.90;;;;;;5032940;28;20049;-62
2023/09/05 07:11:56;;;;;;;12.38;9.88;;;16.40;99.90;;;;;;5049875;28;20613;-63
2023/09/05 07:14:22;;;;;;;12.60;10.27;;;16.50;99.90;;;;;;5033647;28;20047;-62
2023/09/05 07:16:47;;;;;;;13.55;9.57;;;16.60;99.90;;;;;;5033533;28;20112;-62
2023/09/05 07:19:13;;;;;;;12.52;8.93;;;16.70;99.90;;;;;;5031825;28;20078;-63
2023/09/05 07:21:40;;;;;;;15.20;9.70;;;16.80;99.90;;;;;;5049916;28;20095;-63
2023/09/05 07:24:15;;;;;;;12.32;9.32;;;16.80;99.90;;;;;;5050487;28;20135;-63
2023/09/05 07:26:42;;;;;;;12.98;10.13;;;17.00;99.90;;;;;;5033651;28;20084;-63
2023/09/05 07:29:12;;;;;;;12.23;9.43;;;17.10;99.90;;;;;;5033689;28;20087;-63
2023/09/05 07:31:39;;;;;;;13.32;10.25;;;17.20;99.90;;;;;;5033157;28;20045;-62
2023/09/05 07:34:06;;;;;;;17.38;10.23;;;17.30;99.90;;;;;;5017803;28;20114;-63
2023/09/05 07:36:33;;;;;;;11.68;9.10;;;17.40;99.90;;;;;;5051512;28;20041;-62
2023/09/05 07:38:59;;;;;;;12.68;9.38;;;17.50;99.90;;;;;;5032691;28;20090;-62
2023/09/05 07:41:25;;;;;;;13.13;8.80;;;17.60;99.90;;;;;;5013485;28;20677;-62
2023/09/05 07:43:51;;;;;;;12.70;8.38;;;17.80;99.90;;;;;;5012541;28;20049;-63
2023/09/05 07:46:16;;;;;;;10.30;7.90;;;17.80;99.90;;;;;;5034690;28;20045;-63
2023/09/05 07:48:42;;;;;;;11.40;8.15;;;17.90;99.90;;;;;;5016611;28;20064;-62
2023/09/05 07:51:08;;;;;;;11.35;7.97;;;18.00;99.90;;;;;;5030150;28;20049;-62
2023/09/05 07:53:35;;;;;;;10.65;8.30;;;18.10;99.90;;;;;;5026506;28;20045;-62
2023/09/05 07:56:02;;;;;;;11.65;8.15;;;18.20;99.90;;;;;;5029993;28;20045;-62
2023/09/05 07:58:27;;;;;;;10.68;8.13;;;18.30;99.90;;;;;;5026992;28;20102;-62
2023/09/05 08:00:54;;;;;;;10.60;8.15;;;18.40;99.90;;;;;;5032421;28;20490;-62
2023/09/05 08:03:26;;;;;;;11.65;9.10;;;18.50;99.90;;;;;;5049076;28;20414;-62
2023/09/05 08:05:55;;;;;;;13.05;8.70;;;18.70;99.90;;;;;;5033000;28;20045;-62
2023/09/05 08:08:22;;;;;;;11.65;8.40;;;18.80;99.90;;;;;;5032094;28;20044;-62
2023/09/05 08:10:48;;;;;;;11.63;8.85;;;18.90;99.90;;;;;;5015681;28;20490;-62
2023/09/05 08:13:16;;;;;;;11.30;7.75;;;18.90;99.90;;;;;;5049562;28;20052;-63
2023/09/05 08:15:43;;;;;;;10.70;8.07;;;19.00;99.90;;;;;;5032434;28;20042;-62
2023/09/05 08:18:13;;;;;;;10.75;8.38;;;19.10;99.90;;;;;;5050783;28;20097;-62
2023/09/05 08:20:42;;;;;;;12.05;8.40;;;19.30;99.90;;;;;;5030681;28;20868;-62
2023/09/05 08:23:09;;;;;;;9.65;7.95;;;19.40;99.90;;;;;;5016470;28;20052;-62
2023/09/05 08:25:34;;;;;;;10.18;7.57;;;19.50;99.90;;;;;;5034196;28;20498;-63
2023/09/05 08:28:00;;;;;;;9.75;7.90;;;19.60;99.90;;;;;;5052064;28;20163;-62
2023/09/05 08:30:28;;;;;;;10.13;7.90;;;19.60;99.90;;;;;;5018560;28;20504;-62
2023/09/05 08:33:01;;;;;;;10.77;7.40;;;19.80;99.90;;;;;;5016235;28;20040;-63
2023/09/05 08:35:27;;;;;;;9.93;7.35;;;19.80;99.90;;;;;;5029229;28;20086;-63
2023/09/05 08:37:53;;;;;;;10.27;7.65;;;19.90;99.90;;;;;;5031960;28;20045;-63
2023/09/05 08:40:19;;;;;;;12.65;7.53;;;20.00;99.90;;;;;;5031590;28;20512;-63
2023/09/05 08:42:50;;;;;;;10.00;7.10;;;20.00;99.90;;;;;;5030002;28;20758;-63
2023/09/05 08:45:20;;;;;;;10.30;6.85;;;20.10;99.90;;;;;;5038441;28;20098;-62
2023/09/05 08:47:46;;;;;;;10.15;7.03;;;20.30;99.90;;;;;;5028310;28;20072;-63
2023/09/05 08:50:13;;;;;;;7.57;6.25;;;20.40;99.90;;;;;;5016475;28;20045;-63
2023/09/05 08:52:41;;;;;;;9.45;6.80;;;20.50;99.90;;;;;;4992346;28;20380;-62
2023/09/05 08:55:09;;;;;;;9.90;6.75;;;20.60;99.90;;;;;;5015211;28;20077;-63
2023/09/05 08:57:38;;;;;;;8.52;6.07;;;20.70;99.90;;;;;;5027299;28;20053;-63
2023/09/05 09:00:06;;;;;;;9.32;6.63;;;20.80;99.90;;;;;;5016043;28;20048;-62
2023/09/05 09:02:35;;;;;;;9.07;6.95;;;20.90;99.90;;;;;;5022260;28;20050;-62
2023/09/05 09:05:01;;;;;;;9.55;6.55;;;21.00;99.90;;;;;;5021836;28;20041;-62
2023/09/05 09:07:27;;;;;;;8.45;6.70;;;21.10;99.90;;;;;;5028030;28;20099;-62
2023/09/05 09:09:57;;;;;;;8.95;6.15;;;21.20;99.90;;;;;;5026828;28;20041;-62
2023/09/05 09:12:31;;;;;;;8.95;5.63;;;21.20;99.90;;;;;;5011549;28;20088;-62
2023/09/05 09:15:12;;;;;;;8.45;5.63;;;21.30;99.90;;;;;;5029384;28;20033;-63
2023/09/05 09:17:42;;;;;;;12.20;6.03;;;21.40;99.90;;;;;;5027322;28;20474;-63
2023/09/05 09:20:12;;;;;;;10.77;6.38;;;21.50;99.90;;;;;;5011535;28;20075;-63
2023/09/05 09:22:39;;;;;;;9.45;6.00;;;21.60;99.90;;;;;;5029051;28;20061;-63
2023/09/05 09:25:20;;;;;;;8.20;6.20;;;21.60;99.90;;;;;;5026624;28;20399;-62
2023/09/05 09:27:53;;;;;;;7.32;5.40;;;21.80;99.90;;;;;;5027444;28;20049;-62
2023/09/05 09:30:25;;;;;;;8.25;5.65;;;21.90;99.90;;;;;;5026051;28;20045;-63
2023/09/05 09:32:52;;;;;;;10.55;6.78;;;22.00;99.90;;;;;;5026736;28;20045;-63
2023/09/05 09:35:19;;;;;;;9.38;4.70;;;22.10;99.90;;;;;;5027881;28;20041;-62
2023/09/05 09:37:46;;;;;;;7.20;4.85;;;22.20;99.90;;;;;;5028112;28;20042;-63
2023/09/05 09:40:13;;;;;;;8.25;5.25;;;22.30;99.90;;;;;;5012509;28;20041;-63
2023/09/05 09:42:38;;;;;;;7.68;5.10;;;22.40;99.90;;;;;;5030570;28;20120;-63
2023/09/05 09:45:10;;;;;;;7.38;5.28;;;22.50;99.90;;;;;;5030006;28;20120;-62
2023/09/05 09:47:45;;;;;;;8.95;5.72;;;22.60;99.90;;;;;;5033310;28;20053;-63
2023/09/05 09:50:12;;;;;;;7.00;4.82;;;22.70;99.90;;;;;;5034570;28;20033;-63
2023/09/05 09:52:42;;;;;;;7.10;4.70;;;22.80;99.90;;;;;;5005099;28;20077;-63
2023/09/05 09:55:16;;;;;;;7.75;4.35;;;22.90;99.90;;;;;;5013974;28;20048;-63
2023/09/05 09:57:56;;;;;;;6.75;3.83;;;22.90;99.90;;;;;;5014092;28;20041;-62
2023/09/05 10:00:24;;;;;;;6.13;4.03;;;23.00;99.90;;;;;;5031986;28;20112;-64
2023/09/05 10:02:50;;;;;;;7.47;3.33;;;23.00;99.90;;;;;;5008340;28;20046;-65
2023/09/05 10:05:17;;;;;;;6.55;4.28;;;22.90;99.90;;;;;;5031502;28;20045;-65
2023/09/05 10:07:44;;;;;;;7.85;4.25;;;22.80;99.90;;;;;;5014346;28;20037;-64
2023/09/05 10:10:14;;;;;;;9.13;4.45;;;22.70;99.90;;;;;;5017440;28;20490;-65
2023/09/05 10:12:43;;;;;;;6.32;4.38;;;22.70;99.90;;;;;;5001514;28;20038;-65
2023/09/05 10:15:12;;;;;;;6.75;4.07;;;22.70;99.90;;;;;;5017333;28;20041;-64
2023/09/05 10:17:40;;;;;;;8.52;4.25;;;22.70;99.90;;;;;;5017769;28;20041;-64
2023/09/05 10:20:07;;;;;;;7.90;4.40;;;22.80;99.90;;;;;;5015580;28;20049;-64
2023/09/05 10:22:40;;;;;;;5.70;3.75;;;22.90;99.90;;;;;;5034410;28;20037;-64
2023/09/05 10:25:07;;;;;;;6.75;3.72;;;22.90;99.90;;;;;;5024400;28;20111;-64
2023/09/05 10:27:33;;;;;;;11.45;3.90;;;23.00;99.90;;;;;;5026886;28;20042;-65
2023/09/05 10:29:59;;;;;;;5.95;3.58;;;23.10;99.90;;;;;;5000359;28;20056;-65
2023/09/05 10:32:25;;;;;;;6.07;3.17;;;23.20;99.90;;;;;;5000471;28;20041;-65
2023/09/05 10:34:51;;;;;;;8.45;3.72;;;23.30;99.90;;;;;;5052638;28;20032;-65
2023/09/05 10:37:22;;;;;;;5.43;3.05;;;23.40;99.90;;;;;;5036506;28;20033;-65
2023/09/05 10:39:56;;;;;;;7.07;3.13;;;23.50;99.90;;;;;;5020140;28;20128;-65
2023/09/05 10:42:31;;;;;;;6.65;3.15;;;23.60;99.90;;;;;;5053532;28;20122;-65
2023/09/05 10:45:00;;;;;;;8.32;3.30;;;23.60;99.90;;;;;;5035457;28;20367;-65
2023/09/05 10:47:33;;;;;;;5.80;3.22;;;23.60;99.90;;;;;;5025441;28;20045;-65
2023/09/05 10:50:05;;;;;;;6.57;3.10;;;23.60;99.90;;;;;;5032271;28;20388;-65
2023/09/05 10:52:32;;;;;;;6.78;3.20;;;23.60;99.90;;;;;;5034035;28;20482;-66
2023/09/05 10:54:59;;;;;;;5.50;3.03;;;23.70;99.90;;;;;;5032670;28;20041;-65
2023/09/05 10:57:38;;;;;;;8.35;3.25;;;23.70;99.90;;;;;;5034008;28;20052;-64
2023/09/05 11:00:29;;;;;;;7.30;3.30;;;23.80;99.90;;;;;;5033831;28;20045;-65
2023/09/05 11:03:08;;;;;;;5.03;2.78;;;23.80;99.90;;;;;;5016350;28;20041;-65
2023/09/05 11:05:34;;;;;;;7.97;2.95;;;23.80;99.90;;;;;;5023790;28;20088;-66
2023/09/05 11:08:00;;;;;;;5.07;2.63;;;23.80;99.90;;;;;;5015895;28;20045;-66
2023/09/05 11:10:33;;;;;;;5.57;2.70;;;23.90;99.90;;;;;;5031184;28;20041;-65
2023/09/05 11:13:25;;;;;;;6.25;2.72;;;24.00;99.90;;;;;;5016915;28;20069;-65
2023/09/05 11:15:58;;;;;;;4.57;2.28;;;24.20;99.90;;;;;;5030397;28;20037;-65
2023/09/05 11:18:24;;;;;;;4.90;2.42;;;24.30;99.90;;;;;;5032144;28;20037;-65
2023/09/05 11:20:50;;;;;;;4.97;1.90;;;24.50;99.90;;;;;;5016525;28;20047;-66
2023/09/05 11:23:21;;;;;;;5.75;2.30;;;24.60;99.90;;;;;;5032619;28;20467;-64
2023/09/05 11:25:55;;;;;;;5.68;2.17;;;24.70;99.90;;;;;;5016179;28;20040;-65
2023/09/05 11:28:24;;;;;;;4.18;2.03;;;24.80;99.90;;;;;;5032268;28;20116;-65
2023/09/05 11:30:56;;;;;;;4.78;2.45;;;24.90;99.90;;;;;;5033324;28;20088;-63
2023/09/05 11:33:23;;;;;;;4.25;2.10;;;25.00;99.90;;;;;;5032613;28;20050;-63
2023/09/05 11:35:49;;;;;;;5.72;2.35;;;25.00;99.90;;;;;;5032702;28;20494;-63
2023/09/05 11:38:20;;;;;;;5.80;2.50;;;25.10;99.90;;;;;;5032972;28;20038;-63
2023/09/05 11:40:57;;;;;;;4.25;2.30;;;25.20;99.90;;;;;;5033723;28;20446;-63
2023/09/05 11:43:23;;;;;;;4.32;2.30;;;25.30;99.90;;;;;;5033815;28;20029;-63
2023/09/05 11:45:54;;;;;;;7.05;3.40;;;25.30;99.90;;;;;;5031919;28;20049;-63
2023/09/05 11:48:23;;;;;;;7.15;2.50;;;25.40;99.90;;;;;;5032273;28;20057;-63
2023/09/05 11:50:49;;;;;;;6.18;2.53;;;25.50;99.90;;;;;;5032250;28;20129;-63
2023/09/05 11:53:18;;;;;;;4.82;2.42;;;25.50;99.90;;;;;;5031658;28;20537;-63
2023/09/05 11:55:46;;;;;;;6.32;2.67;;;25.50;99.90;;;;;;5033467;28;20037;-63
2023/09/05 11:58:15;;;;;;;4.60;2.80;;;25.50;99.90;;;;;;5032624;28;20099;-62
2023/09/05 12:00:45;;;;;;;5.10;2.25;;;25.50;99.90;;;;;;5032161;28;20095;-63
2023/09/05 12:03:14;;;;;;;5.80;2.38;;;25.60;99.90;;;;;;5033186;28;20532;-62
2023/09/05 12:05:41;;;;;;;4.75;2.17;;;25.60;99.90;;;;;;5031449;28;20056;-63
2023/09/05 12:08:07;;;;;;;5.97;2.83;;;25.70;99.90;;;;;;5032303;28;20037;-63
2023/09/05 12:10:42;;;;;;;4.90;2.88;;;25.80;99.90;;;;;;5033150;28;20072;-68
2023/09/05 12:13:07;;;;;;;6.40;2.72;;;25.90;99.90;;;;;;5031288;28;20549;-68
2023/09/05 12:15:37;;;;;;;6.55;2.60;;;25.90;99.90;;;;;;5031928;28;20116;-69
2023/09/05 12:18:05;;;;;;;6.65;2.70;;;26.00;99.90;;;;;;5032256;28;20034;-68
2023/09/05 12:20:35;;;;;;;5.15;2.50;;;26.00;99.90;;;;;;5032160;28;20048;-68
2023/09/05 12:23:02;;;;;;;4.57;2.15;;;26.00;99.90;;;;;;5033438;28;20045;-68
2023/09/05 12:25:28;;;;;;;5.22;2.72;;;26.00;99.90;;;;;;5031430;28;20056;-69
2023/09/05 12:27:55;;;;;;;4.57;2.38;;;26.10;99.90;;;;;;5032612;28;20037;-69
2023/09/05 12:30:24;;;;;;;4.38;2.13;;;26.10;99.90;;;;;;5032296;28;20053;-68
2023/09/05 12:32:54;;;;;;;5.30;2.47;;;26.10;99.90;;;;;;5031581;28;20049;-68
2023/09/05 12:35:20;;;;;;;5.47;2.38;;;26.20;99.90;;;;;;5031894;28;20044;-68